createdAt,value
2023-05-01T00:00:07.580Z,1.80
2023-05-01T00:00:18.545Z,1.76
2023-05-01T00:00:31.702Z,1.77
2023-05-01T00:00:39.932Z,1.90
2023-05-01T00:00:48.244Z,1.83
2023-05-01T00:01:02.642Z,1.90
2023-05-01T00:01:09.953Z,1.63
2023-05-01T00:01:24.968Z,1.58
2023-05-01T00:01:32.087Z,1.80
2023-05-01T00:01:48.920Z,1.96
2023-05-01T00:01:56.081Z,3.39
2023-05-01T00:02:03.544Z,3.40
2023-05-01T00:02:10.759Z,3.17
2023-05-01T00:02:25.134Z,1.77
2023-05-01T00:02:32.603Z,1.70
2023-05-01T00:02:54.706Z,2.47
2023-05-01T00:03:02.211Z,2.64
2023-05-01T00:03:12.361Z,2.83
2023-05-01T00:03:19.795Z,2.15
2023-05-01T00:03:27.369Z,2.04
2023-05-01T00:03:36.107Z,1.73
2023-05-01T00:03:54.775Z,1.70
2023-05-01T00:04:09.251Z,2.00
2023-05-01T00:04:17.544Z,1.92
2023-05-01T00:04:25.085Z,2.03
2023-05-01T00:04:33.996Z,1.63
2023-05-01T00:04:44.009Z,1.53
2023-05-01T00:04:58.827Z,2.70
2023-05-01T00:05:10.364Z,3.20
2023-05-01T00:05:20.734Z,3.05
2023-05-01T00:05:28.452Z,2.53
2023-05-01T00:05:35.624Z,1.80
2023-05-01T00:05:50.022Z,2.28
2023-05-01T00:06:00.864Z,2.54
2023-05-01T00:06:11.519Z,2.73
2023-05-01T00:06:28.435Z,2.00
2023-05-01T00:06:35.791Z,1.92
2023-05-01T00:06:44.905Z,1.62
2023-05-01T00:06:52.691Z,1.67
2023-05-01T00:07:07.436Z,1.84
2023-05-01T00:07:14.645Z,2.30
2023-05-01T00:07:32.352Z,2.43
2023-05-01T00:07:39.500Z,2.37
2023-05-01T00:07:46.907Z,2.07
2023-05-01T00:07:54.134Z,2.07
2023-05-01T00:08:08.424Z,1.90
2023-05-01T00:08:16.206Z,1.97
2023-05-01T00:08:50.939Z,2.04
2023-05-01T00:09:00.613Z,3.04
2023-05-01T00:09:07.747Z,2.97
2023-05-01T00:09:15.428Z,2.70
2023-05-01T00:09:22.560Z,2.77
2023-05-01T00:09:29.718Z,2.28
2023-05-01T00:09:51.738Z,2.20
2023-05-01T00:10:07.699Z,2.43
2023-05-01T00:10:14.902Z,2.40
2023-05-01T00:10:24.676Z,2.16
2023-05-01T00:10:31.883Z,2.00
2023-05-01T00:10:39.484Z,2.33
2023-05-01T00:10:56.132Z,3.00
2023-05-01T00:11:12.743Z,2.66
2023-05-01T00:11:20.128Z,2.21
2023-05-01T00:11:27.868Z,2.05
2023-05-01T00:11:35.496Z,1.80
2023-05-01T00:11:42.830Z,1.90
2023-05-01T00:11:59.919Z,1.65
2023-05-01T00:12:14.635Z,1.90
2023-05-01T00:12:21.824Z,2.33
2023-05-01T00:12:28.949Z,2.52
2023-05-01T00:12:36.127Z,2.20
2023-05-01T00:12:43.250Z,2.25
2023-05-01T00:13:06.652Z,1.82
2023-05-01T00:13:23.237Z,2.40
2023-05-01T00:13:34.002Z,2.66
2023-05-01T00:13:41.530Z,3.00
2023-05-01T00:13:48.875Z,2.27
2023-05-01T00:13:56.067Z,1.97
2023-05-01T00:14:10.628Z,1.40
2023-05-01T00:14:24.933Z,2.16
2023-05-01T00:14:39.206Z,2.23
2023-05-01T00:14:46.494Z,2.10
2023-05-01T00:14:55.230Z,1.73
2023-05-01T00:15:02.400Z,1.89
2023-05-01T00:15:14.508Z,2.13
2023-05-01T00:15:29.043Z,1.93
2023-05-01T00:15:43.594Z,1.90
2023-05-01T00:15:51.639Z,1.80
2023-05-01T00:15:58.955Z,1.75
2023-05-01T00:16:09.787Z,1.90
2023-05-01T00:16:18.252Z,1.50
2023-05-01T00:16:33.973Z,2.20
2023-05-01T00:16:43.797Z,2.60
2023-05-01T00:16:54.353Z,2.58
2023-05-01T00:17:01.698Z,2.31
2023-05-01T00:17:16.132Z,1.90
2023-05-01T00:17:24.153Z,2.07
2023-05-01T00:17:38.591Z,1.90
2023-05-01T00:17:45.934Z,1.88
2023-05-01T00:17:54.318Z,1.82
2023-05-01T00:18:04.306Z,1.98
2023-05-01T00:18:21.772Z,2.54
2023-05-01T00:18:30.363Z,2.46
2023-05-01T00:18:45.034Z,2.80
2023-05-01T00:18:55.316Z,3.10
2023-05-01T00:19:03.516Z,3.01
2023-05-01T00:19:16.700Z,2.90
2023-05-01T00:19:24.017Z,2.51
2023-05-01T00:19:33.185Z,2.58
2023-05-01T00:19:47.802Z,2.80
2023-05-01T00:20:02.296Z,3.07
2023-05-01T00:20:10.787Z,2.57
2023-05-01T00:20:18.093Z,2.63
2023-05-01T00:20:27.107Z,2.23
2023-05-01T00:20:34.239Z,2.39
2023-05-01T00:20:51.723Z,2.60
2023-05-01T00:21:06.614Z,2.27
2023-05-01T00:21:13.804Z,2.26
2023-05-01T00:21:21.014Z,2.47
2023-05-01T00:21:29.067Z,2.77
2023-05-01T00:21:36.254Z,2.95
2023-05-01T00:21:55.662Z,3.55
2023-05-01T00:22:09.991Z,3.42
2023-05-01T00:22:17.633Z,2.92
2023-05-01T00:22:24.845Z,2.40
2023-05-01T00:22:31.977Z,2.45
2023-05-01T00:22:39.116Z,2.13
2023-05-01T00:23:00.376Z,1.58
2023-05-01T00:23:15.952Z,1.94
2023-05-01T00:23:23.316Z,1.98
2023-05-01T00:23:30.695Z,2.26
2023-05-01T00:23:40.556Z,2.30
2023-05-01T00:23:47.825Z,2.24
2023-05-01T00:24:02.935Z,2.82
2023-05-01T00:24:17.421Z,3.06
2023-05-01T00:24:24.614Z,2.40
2023-05-01T00:24:31.770Z,2.17
2023-05-01T00:24:48.466Z,1.80
2023-05-01T00:24:55.643Z,2.19
2023-05-01T00:25:05.550Z,2.62
2023-05-01T00:25:20.029Z,3.48
2023-05-01T00:25:28.015Z,3.34
2023-05-01T00:25:35.259Z,2.80
2023-05-01T00:25:49.968Z,2.43
2023-05-01T00:25:57.545Z,2.40
2023-05-01T00:26:12.288Z,3.25
2023-05-01T00:26:26.416Z,3.12
2023-05-01T00:26:38.605Z,2.84
2023-05-01T00:26:45.874Z,3.19
2023-05-01T00:26:53.410Z,3.24
2023-05-01T00:27:00.588Z,3.43
2023-05-01T00:27:15.232Z,2.13
2023-05-01T00:27:29.793Z,2.20
2023-05-01T00:27:44.935Z,2.38
2023-05-01T00:27:52.071Z,2.17
2023-05-01T00:28:00.004Z,2.03
2023-05-01T00:28:10.095Z,2.50
2023-05-01T00:28:18.784Z,2.14
2023-05-01T00:28:33.287Z,2.10
2023-05-01T00:28:50.931Z,2.63
2023-05-01T00:28:58.529Z,2.75
2023-05-01T00:29:05.797Z,3.00
2023-05-01T00:29:13.371Z,2.75
2023-05-01T00:29:23.659Z,2.63
2023-05-01T00:29:38.211Z,2.36
2023-05-01T00:29:53.489Z,2.23
2023-05-01T00:30:00.764Z,1.90
2023-05-01T00:30:09.808Z,2.03
2023-05-01T00:30:17.223Z,2.61
2023-05-01T00:30:24.596Z,2.98
2023-05-01T00:30:42.818Z,2.98
2023-05-01T00:30:57.901Z,2.63
2023-05-01T00:31:05.213Z,2.50
2023-05-01T00:31:12.833Z,2.76
2023-05-01T00:31:24.259Z,3.07
2023-05-01T00:31:31.874Z,3.16
2023-05-01T00:31:47.574Z,2.67
2023-05-01T00:32:05.949Z,2.63
2023-05-01T00:32:13.889Z,2.65
2023-05-01T00:32:21.368Z,2.60
2023-05-01T00:32:28.758Z,2.70
2023-05-01T00:32:36.342Z,2.57
2023-05-01T00:32:51.000Z,2.80
2023-05-01T00:33:15.666Z,3.17
2023-05-01T00:33:22.805Z,2.59
2023-05-01T00:33:29.975Z,1.96
2023-05-01T00:33:37.204Z,1.86
2023-05-01T00:33:44.482Z,1.80
2023-05-01T00:33:54.801Z,1.75
2023-05-01T00:34:16.910Z,2.00
2023-05-01T00:34:25.261Z,2.00
2023-05-01T00:34:32.453Z,2.50
2023-05-01T00:34:42.313Z,2.93
2023-05-01T00:34:49.503Z,3.07
2023-05-01T00:34:57.866Z,3.40
2023-05-01T00:35:20.800Z,2.83
2023-05-01T00:35:28.305Z,2.78
2023-05-01T00:35:35.886Z,2.43
2023-05-01T00:35:44.508Z,2.13
2023-05-01T00:35:55.958Z,1.80
2023-05-01T00:36:03.340Z,2.11
2023-05-01T00:36:26.863Z,2.83
2023-05-01T00:36:34.106Z,2.67
2023-05-01T00:36:42.960Z,2.45
2023-05-01T00:36:50.209Z,2.00
2023-05-01T00:36:58.029Z,1.72
2023-05-01T00:37:05.270Z,1.98
2023-05-01T00:37:30.073Z,2.77
2023-05-01T00:37:37.393Z,3.40
2023-05-01T00:37:44.623Z,3.00
2023-05-01T00:37:51.924Z,3.24
2023-05-01T00:37:59.227Z,3.02
2023-05-01T00:38:06.407Z,2.10
2023-05-01T00:38:38.976Z,3.72
2023-05-01T00:38:46.636Z,3.17
2023-05-01T00:38:54.480Z,3.10
2023-05-01T00:39:02.885Z,3.07
2023-05-01T00:39:10.019Z,3.33
2023-05-01T00:39:17.639Z,3.20
2023-05-01T00:39:39.453Z,1.86
2023-05-01T00:39:46.731Z,1.90
2023-05-01T00:40:01.072Z,2.27
2023-05-01T00:40:12.089Z,2.75
2023-05-01T00:40:19.572Z,2.91
2023-05-01T00:40:27.209Z,2.98
2023-05-01T00:40:44.717Z,3.23
2023-05-01T00:40:51.890Z,3.51
2023-05-01T00:41:06.463Z,2.77
2023-05-01T00:41:13.763Z,2.15
2023-05-01T00:41:21.364Z,2.48
2023-05-01T00:41:33.278Z,2.97
2023-05-01T00:41:47.928Z,2.90
2023-05-01T00:41:55.183Z,2.72
2023-05-01T00:42:12.272Z,1.80
2023-05-01T00:42:19.439Z,2.17
2023-05-01T00:42:26.707Z,2.90
2023-05-01T00:42:39.429Z,2.83
2023-05-01T00:42:54.308Z,3.44
2023-05-01T00:43:04.380Z,3.00
2023-05-01T00:43:19.312Z,2.13
2023-05-01T00:43:26.498Z,2.18
2023-05-01T00:43:33.849Z,2.66
2023-05-01T00:43:41.050Z,2.73
2023-05-01T00:43:55.352Z,2.87
2023-05-01T00:44:10.904Z,2.42
2023-05-01T00:44:20.837Z,2.33
2023-05-01T00:44:29.252Z,2.10
2023-05-01T00:44:36.578Z,2.30
2023-05-01T00:44:43.739Z,2.20
2023-05-01T00:44:58.178Z,2.16
2023-05-01T00:45:15.480Z,1.67
2023-05-01T00:45:22.724Z,2.47
2023-05-01T00:45:29.917Z,2.50
2023-05-01T00:45:37.208Z,2.67
2023-05-01T00:45:48.335Z,3.42
2023-05-01T00:46:02.773Z,3.56
2023-05-01T00:46:19.315Z,2.30
2023-05-01T00:46:27.146Z,2.43
2023-05-01T00:46:35.322Z,2.27
2023-05-01T00:46:44.058Z,3.07
2023-05-01T00:46:51.462Z,2.70
2023-05-01T00:47:08.240Z,2.34
2023-05-01T00:47:21.582Z,1.78
2023-05-01T00:47:29.066Z,1.99
2023-05-01T00:47:36.841Z,2.22
2023-05-01T00:47:44.219Z,2.28
2023-05-01T00:47:52.005Z,2.47
2023-05-01T00:48:08.589Z,2.67
2023-05-01T00:48:23.770Z,2.76
2023-05-01T00:48:31.416Z,2.48
2023-05-01T00:48:38.678Z,2.67
2023-05-01T00:48:48.597Z,2.77
2023-05-01T00:48:58.816Z,2.30
2023-05-01T00:49:13.674Z,1.67
2023-05-01T00:49:29.409Z,2.10
2023-05-01T00:49:36.663Z,2.00
2023-05-01T00:49:44.829Z,1.93
2023-05-01T00:49:53.407Z,1.50
2023-05-01T00:50:01.167Z,2.17
2023-05-01T00:50:19.422Z,3.21
2023-05-01T00:50:34.041Z,2.80
2023-05-01T00:50:41.911Z,3.22
2023-05-01T00:50:50.242Z,2.70
2023-05-01T00:50:58.838Z,2.78
2023-05-01T00:51:10.818Z,2.37
2023-05-01T00:51:27.604Z,1.70
2023-05-01T00:51:35.285Z,1.48
2023-05-01T00:51:43.621Z,1.57
2023-05-01T00:51:53.538Z,1.80
2023-05-01T00:52:00.831Z,1.86
2023-05-01T00:52:17.348Z,3.00
2023-05-01T00:52:32.239Z,3.93
2023-05-01T00:52:39.828Z,3.47
2023-05-01T00:52:49.855Z,3.22
2023-05-01T00:52:57.321Z,2.42
2023-05-01T00:53:04.703Z,2.43
2023-05-01T00:53:20.510Z,3.00
2023-05-01T00:53:35.716Z,4.00
2023-05-01T00:53:44.053Z,3.50
2023-05-01T00:53:52.159Z,3.54
2023-05-01T00:54:00.466Z,3.17
2023-05-01T00:54:10.677Z,2.68
2023-05-01T00:54:27.855Z,2.10
2023-05-01T00:54:42.455Z,2.50
2023-05-01T00:54:52.368Z,2.57
2023-05-01T00:54:59.872Z,2.63
2023-05-01T00:55:08.508Z,2.65
2023-05-01T00:55:16.302Z,2.33
2023-05-01T00:55:36.193Z,2.75
2023-05-01T00:55:43.800Z,2.79
2023-05-01T00:56:00.232Z,3.26
2023-05-01T00:56:08.848Z,3.07
2023-05-01T00:56:16.421Z,2.80
2023-05-01T00:56:23.860Z,2.74
2023-05-01T00:56:38.966Z,2.97
2023-05-01T00:56:47.156Z,3.16
2023-05-01T00:57:07.166Z,2.30
2023-05-01T00:57:15.584Z,1.74
2023-05-01T00:57:23.078Z,2.05
2023-05-01T00:57:30.289Z,2.70
2023-05-01T00:57:45.202Z,3.40
2023-05-01T00:57:55.259Z,3.60
2023-05-01T00:58:11.934Z,3.40
2023-05-01T00:58:22.221Z,3.27
2023-05-01T00:58:29.791Z,2.72
2023-05-01T00:58:37.268Z,2.10
2023-05-01T00:58:46.458Z,2.20
2023-05-01T00:59:01.633Z,2.54
2023-05-01T00:59:17.135Z,2.60
2023-05-01T00:59:25.643Z,2.57
2023-05-01T00:59:33.195Z,2.74
2023-05-01T00:59:41.480Z,2.54
2023-05-01T00:59:49.199Z,3.30
2023-05-01T01:00:06.954Z,2.72
2023-05-01T01:00:25.051Z,2.28
2023-05-01T01:00:32.680Z,2.83
2023-05-01T01:00:40.030Z,3.30
2023-05-01T01:00:47.488Z,3.28
2023-05-01T01:00:55.318Z,3.47
2023-05-01T01:01:10.195Z,4.38
2023-05-01T01:01:27.250Z,4.84
2023-05-01T01:01:35.104Z,3.97
2023-05-01T01:01:42.890Z,3.60
2023-05-01T01:01:50.996Z,2.88
2023-05-01T01:01:58.558Z,2.83
2023-05-01T01:02:12.847Z,2.40
2023-05-01T01:02:27.554Z,2.50
2023-05-01T01:02:37.409Z,2.10
2023-05-01T01:02:45.448Z,3.20
2023-05-01T01:02:52.790Z,3.73
2023-05-01T01:03:00.222Z,3.77
2023-05-01T01:03:14.777Z,3.00
2023-05-01T01:03:29.127Z,2.76
2023-05-01T01:03:43.455Z,3.00
2023-05-01T01:03:51.888Z,2.75
2023-05-01T01:04:04.420Z,2.55
2023-05-01T01:04:12.174Z,1.85
2023-05-01T01:04:19.554Z,2.00
2023-05-01T01:04:36.701Z,2.44
2023-05-01T01:04:47.068Z,2.73
2023-05-01T01:04:54.542Z,3.09
2023-05-01T01:05:09.302Z,3.10
2023-05-01T01:05:21.831Z,2.67
2023-05-01T01:05:32.813Z,2.63
2023-05-01T01:05:47.287Z,2.67
2023-05-01T01:06:01.397Z,3.13
2023-05-01T01:06:15.796Z,2.83
2023-05-01T01:06:34.159Z,2.14
2023-05-01T01:06:49.589Z,2.89
2023-05-01T01:07:05.708Z,3.04
2023-05-01T01:07:22.265Z,2.44
2023-05-01T01:07:37.235Z,2.74
2023-05-01T01:07:51.959Z,2.46
2023-05-01T01:08:10.991Z,2.95
2023-05-01T01:08:24.338Z,3.44
2023-05-01T01:08:39.480Z,2.83
2023-05-01T01:08:59.214Z,3.35
2023-05-01T01:09:17.286Z,3.24
2023-05-01T01:09:36.631Z,3.10
2023-05-01T01:09:56.576Z,3.76
2023-05-01T01:10:10.681Z,3.53
2023-05-01T01:10:30.271Z,3.31
2023-05-01T01:10:44.740Z,3.04
2023-05-01T01:10:57.331Z,2.50
2023-05-01T01:11:14.664Z,2.55
2023-05-01T01:11:29.507Z,2.78
2023-05-01T01:11:43.770Z,2.75
2023-05-01T01:12:04.823Z,2.50
2023-05-01T01:12:21.407Z,2.22
2023-05-01T01:12:35.083Z,2.19
2023-05-01T01:12:53.643Z,2.60
2023-05-01T01:13:08.874Z,2.78
2023-05-01T01:13:22.983Z,2.80
2023-05-01T01:13:34.351Z,2.89
2023-05-01T01:13:50.033Z,3.51
2023-05-01T01:14:04.025Z,3.24
2023-05-01T01:14:16.100Z,3.03
2023-05-01T01:14:28.642Z,3.03
2023-05-01T01:14:43.376Z,3.04
2023-05-01T01:14:58.058Z,2.56
2023-05-01T01:15:14.768Z,2.95
2023-05-01T01:15:32.336Z,3.01
2023-05-01T01:15:45.973Z,2.70
2023-05-01T01:15:59.715Z,3.05
2023-05-01T01:16:15.287Z,3.14
2023-05-01T01:16:32.541Z,3.39
2023-05-01T01:16:45.695Z,4.06
2023-05-01T01:16:58.510Z,4.31
2023-05-01T01:17:19.097Z,3.95
2023-05-01T01:17:33.247Z,3.24
2023-05-01T01:17:51.775Z,1.91
2023-05-01T01:18:08.460Z,2.69
2023-05-01T01:18:20.640Z,2.71
2023-05-01T01:18:34.566Z,2.71
2023-05-01T01:18:48.979Z,2.75
2023-05-01T01:19:05.285Z,2.67
2023-05-01T01:19:50.908Z,2.45
2023-05-01T01:20:21.831Z,2.54
2023-05-01T01:20:38.570Z,3.79
2023-05-01T01:20:54.923Z,4.93
2023-05-01T01:21:11.690Z,4.53
2023-05-01T01:21:28.304Z,3.09
2023-05-01T01:21:41.683Z,3.24
2023-05-01T01:21:54.847Z,3.21
2023-05-01T01:22:08.428Z,2.50
2023-05-01T01:22:21.241Z,2.58
2023-05-01T01:22:29.861Z,3.08
2023-05-01T01:22:40.587Z,3.72
2023-05-01T01:22:53.509Z,4.03
2023-05-01T01:23:16.951Z,3.67
2023-05-01T01:23:36.912Z,3.00
2023-05-01T01:24:03.552Z,3.14
2023-05-01T01:24:44.849Z,4.13
2023-05-01T01:25:30.281Z,3.64
2023-05-01T01:25:57.300Z,3.10
2023-05-01T01:26:23.725Z,3.85
2023-05-01T01:27:09.733Z,4.50
2023-05-01T01:27:42.656Z,4.14
2023-05-01T01:28:37.547Z,3.85
2023-05-01T01:29:13.021Z,2.92
2023-05-01T01:29:44.700Z,3.20
2023-05-01T01:30:22.322Z,3.72
2023-05-01T01:30:43.890Z,3.70
2023-05-01T01:31:14.433Z,3.36
2023-05-01T01:31:28.965Z,3.20
2023-05-01T01:31:46.175Z,2.92
2023-05-01T01:32:04.530Z,2.51
2023-05-01T01:32:40.883Z,2.96
2023-05-01T01:33:07.069Z,3.31
2023-05-01T01:33:51.800Z,2.63
2023-05-01T01:34:15.706Z,3.06
2023-05-01T01:34:27.824Z,4.13
2023-05-01T01:34:40.323Z,3.94
2023-05-01T01:34:52.613Z,2.47
2023-05-01T01:35:03.497Z,2.31
2023-05-01T01:35:17.324Z,2.54
2023-05-01T01:35:27.299Z,2.30
2023-05-01T01:35:37.185Z,2.13
2023-05-01T01:35:54.693Z,2.11
2023-05-01T01:36:10.074Z,2.25
2023-05-01T01:36:21.552Z,2.49
2023-05-01T01:36:39.417Z,2.79
2023-05-01T01:36:51.620Z,2.80
2023-05-01T01:37:06.097Z,2.86
2023-05-01T01:37:23.249Z,3.16
2023-05-01T01:37:42.577Z,3.16
2023-05-01T01:37:55.442Z,2.76
2023-05-01T01:38:07.146Z,2.81
2023-05-01T01:38:19.897Z,2.66
2023-05-01T01:38:34.871Z,2.44
2023-05-01T01:38:46.697Z,2.67
2023-05-01T01:39:03.961Z,3.39
2023-05-01T01:39:35.893Z,3.10
2023-05-01T01:39:49.983Z,2.88
2023-05-01T01:40:04.366Z,3.47
2023-05-01T01:40:16.626Z,2.60
2023-05-01T01:40:29.944Z,2.67
2023-05-01T01:40:42.006Z,2.94
2023-05-01T01:40:58.632Z,3.35
2023-05-01T01:41:13.188Z,3.59
2023-05-01T01:41:27.901Z,3.36
2023-05-01T01:41:37.167Z,2.80
2023-05-01T01:41:51.384Z,2.31
2023-05-01T01:42:00.398Z,2.81
2023-05-01T01:42:13.194Z,3.40
2023-05-01T01:42:27.066Z,4.09
2023-05-01T01:42:40.897Z,4.07
2023-05-01T01:42:55.530Z,3.61
2023-05-01T01:43:07.785Z,3.01
2023-05-01T01:43:19.551Z,3.03
2023-05-01T01:43:29.304Z,3.00
2023-05-01T01:43:41.053Z,3.00
2023-05-01T01:43:57.927Z,2.97
2023-05-01T01:44:10.032Z,2.58
2023-05-01T01:44:21.422Z,2.99
2023-05-01T01:44:38.021Z,4.23
2023-05-01T01:44:51.316Z,4.16
2023-05-01T01:45:05.157Z,2.84
2023-05-01T01:45:19.476Z,2.70
2023-05-01T01:45:33.290Z,2.97
2023-05-01T01:45:44.033Z,3.45
2023-05-01T01:46:00.481Z,3.91
2023-05-01T01:46:11.117Z,4.78
2023-05-01T01:46:20.840Z,4.29
2023-05-01T01:46:29.020Z,3.26
2023-05-01T01:46:40.114Z,3.87
2023-05-01T01:46:49.664Z,4.52
2023-05-01T01:47:14.088Z,3.80
2023-05-01T01:47:28.384Z,3.13
2023-05-01T01:47:37.027Z,2.84
2023-05-01T01:47:46.246Z,3.40
2023-05-01T01:47:57.606Z,3.80
2023-05-01T01:48:07.469Z,3.90
2023-05-01T01:48:18.207Z,3.92
2023-05-01T01:48:31.323Z,3.50
2023-05-01T01:48:42.928Z,3.50
2023-05-01T01:48:56.236Z,4.12
2023-05-01T01:49:10.167Z,3.69
2023-05-01T01:49:20.964Z,3.28
2023-05-01T01:49:31.690Z,3.58
2023-05-01T01:49:44.770Z,4.80
2023-05-01T01:49:54.171Z,4.55
2023-05-01T01:50:07.332Z,3.37
2023-05-01T01:50:15.248Z,3.00
2023-05-01T01:50:29.239Z,2.33
2023-05-01T01:50:39.053Z,2.45
2023-05-01T01:50:48.712Z,2.43
2023-05-01T01:50:58.950Z,2.50
2023-05-01T01:51:09.395Z,3.48
2023-05-01T01:51:20.216Z,4.20
2023-05-01T01:51:30.026Z,4.14
2023-05-01T01:51:40.739Z,3.30
2023-05-01T01:51:50.347Z,3.43
2023-05-01T01:52:02.013Z,3.40
2023-05-01T01:52:14.408Z,3.16
2023-05-01T01:52:24.269Z,3.14
2023-05-01T01:52:33.636Z,3.42
2023-05-01T01:52:42.631Z,3.19
2023-05-01T01:52:53.123Z,2.63
2023-05-01T01:53:03.458Z,2.66
2023-05-01T01:53:25.152Z,2.56
2023-05-01T01:53:35.521Z,2.17
2023-05-01T01:53:50.256Z,2.20
2023-05-01T01:54:00.754Z,3.34
2023-05-01T01:54:12.252Z,3.80
2023-05-01T01:54:26.813Z,3.39
2023-05-01T01:54:38.333Z,3.31
2023-05-01T01:54:53.950Z,3.45
2023-05-01T01:55:06.542Z,3.31
2023-05-01T01:55:15.522Z,2.74
2023-05-01T01:55:28.020Z,2.27
2023-05-01T01:55:36.602Z,2.47
2023-05-01T01:55:46.438Z,2.86
2023-05-01T01:55:58.345Z,3.47
2023-05-01T01:56:08.126Z,3.88
2023-05-01T01:56:18.060Z,4.53
2023-05-01T01:56:29.524Z,5.13
2023-05-01T01:56:38.302Z,4.28
2023-05-01T01:56:49.458Z,3.47
2023-05-01T01:56:59.750Z,2.56
2023-05-01T01:57:12.958Z,2.38
2023-05-01T01:57:22.667Z,2.16
2023-05-01T01:57:31.296Z,2.69
2023-05-01T01:57:40.997Z,2.80
2023-05-01T01:57:50.851Z,2.71
2023-05-01T01:58:02.571Z,2.20
2023-05-01T01:58:14.318Z,2.20
2023-05-01T01:58:26.264Z,2.47
2023-05-01T01:58:36.088Z,2.63
2023-05-01T01:58:45.921Z,3.15
2023-05-01T01:58:54.110Z,3.67
2023-05-01T01:59:02.646Z,3.92
2023-05-01T01:59:22.108Z,3.27
2023-05-01T01:59:33.999Z,2.40
2023-05-01T01:59:46.440Z,2.85
2023-05-01T01:59:58.157Z,2.86
2023-05-01T02:00:09.127Z,4.20
2023-05-01T02:00:22.264Z,3.79
2023-05-01T02:00:32.251Z,3.84
2023-05-01T02:00:42.697Z,2.70
2023-05-01T02:00:50.481Z,3.20
2023-05-01T02:01:00.528Z,3.07
2023-05-01T02:01:12.333Z,4.00
2023-05-01T02:01:29.621Z,3.33
2023-05-01T02:01:39.738Z,3.37
2023-05-01T02:01:50.718Z,3.83
2023-05-01T02:02:01.563Z,3.95
2023-05-01T02:02:10.658Z,3.58
2023-05-01T02:02:20.688Z,2.61
2023-05-01T02:02:29.830Z,2.53
2023-05-01T02:02:48.372Z,3.75
2023-05-01T02:02:58.590Z,3.90
2023-05-01T02:03:06.790Z,3.34
2023-05-01T02:03:15.796Z,2.65
2023-05-01T02:03:24.621Z,3.00
2023-05-01T02:03:36.437Z,3.87
2023-05-01T02:03:59.072Z,3.93
2023-05-01T02:04:09.004Z,3.21
2023-05-01T02:04:19.945Z,3.90
2023-05-01T02:04:28.824Z,4.53
2023-05-01T02:04:40.010Z,4.77
2023-05-01T02:04:49.739Z,4.07
2023-05-01T02:05:07.326Z,2.33
2023-05-01T02:05:16.974Z,2.50
2023-05-01T02:05:26.632Z,2.91
2023-05-01T02:05:37.025Z,3.35
2023-05-01T02:05:46.045Z,3.60
2023-05-01T02:05:56.672Z,3.97
2023-05-01T02:06:13.849Z,3.40
2023-05-01T02:06:27.257Z,3.19
2023-05-01T02:06:37.520Z,2.97
2023-05-01T02:06:46.661Z,2.70
2023-05-01T02:06:57.155Z,2.67
2023-05-01T02:07:06.142Z,3.24
2023-05-01T02:07:15.193Z,3.73
2023-05-01T02:07:31.770Z,3.65
2023-05-01T02:07:41.049Z,3.51
2023-05-01T02:07:53.310Z,3.86
2023-05-01T02:08:01.166Z,3.62
2023-05-01T02:08:11.494Z,4.23
2023-05-01T02:08:21.522Z,3.74
2023-05-01T02:08:39.053Z,2.90
2023-05-01T02:08:49.263Z,3.82
2023-05-01T02:08:58.840Z,3.99
2023-05-01T02:09:07.854Z,4.07
2023-05-01T02:09:18.759Z,3.87
2023-05-01T02:09:31.434Z,4.13
2023-05-01T02:09:40.025Z,4.19
2023-05-01T02:09:50.559Z,3.60
2023-05-01T02:09:59.280Z,3.88
2023-05-01T02:10:09.105Z,3.87
2023-05-01T02:10:29.422Z,3.70
2023-05-01T02:10:38.963Z,3.75
2023-05-01T02:10:49.002Z,3.46
2023-05-01T02:11:02.047Z,2.80
2023-05-01T02:11:14.720Z,2.86
2023-05-01T02:11:24.672Z,3.01
2023-05-01T02:11:36.778Z,3.19
2023-05-01T02:11:48.748Z,2.82
2023-05-01T02:11:57.087Z,2.42
2023-05-01T02:12:07.358Z,2.67
2023-05-01T02:12:17.084Z,3.04
2023-05-01T02:12:29.036Z,3.77
2023-05-01T02:12:37.055Z,3.85
2023-05-01T02:12:57.525Z,4.47
2023-05-01T02:13:06.028Z,4.11
2023-05-01T02:13:14.791Z,3.81
2023-05-01T02:13:22.421Z,3.00
2023-05-01T02:13:31.458Z,2.92
2023-05-01T02:13:40.446Z,3.20
2023-05-01T02:14:02.444Z,3.24
2023-05-01T02:14:12.079Z,2.99
2023-05-01T02:14:21.405Z,3.30
2023-05-01T02:14:29.837Z,3.30
2023-05-01T02:14:39.636Z,2.70
2023-05-01T02:14:48.625Z,2.30
2023-05-01T02:15:11.485Z,3.56
2023-05-01T02:15:21.047Z,3.59
2023-05-01T02:15:30.329Z,2.86
2023-05-01T02:15:39.719Z,4.03
2023-05-01T02:15:51.915Z,4.57
2023-05-01T02:16:01.108Z,4.61
2023-05-01T02:16:18.662Z,3.93
2023-05-01T02:16:30.334Z,4.27
2023-05-01T02:16:38.148Z,3.90
2023-05-01T02:16:46.076Z,3.10
2023-05-01T02:16:55.101Z,3.17
2023-05-01T02:17:03.175Z,3.07
2023-05-01T02:17:21.093Z,4.13
2023-05-01T02:17:38.546Z,3.96
2023-05-01T02:17:46.515Z,3.00
2023-05-01T02:17:57.115Z,2.87
2023-05-01T02:18:05.644Z,3.14
2023-05-01T02:18:15.036Z,4.11
2023-05-01T02:18:22.972Z,3.73
2023-05-01T02:18:41.519Z,3.53
2023-05-01T02:18:50.648Z,3.94
2023-05-01T02:19:02.983Z,3.23
2023-05-01T02:19:10.777Z,2.90
2023-05-01T02:19:19.180Z,2.65
2023-05-01T02:19:27.635Z,3.60
2023-05-01T02:19:47.028Z,3.59
2023-05-01T02:19:56.305Z,2.65
2023-05-01T02:20:05.685Z,3.04
2023-05-01T02:20:14.494Z,3.61
2023-05-01T02:20:22.323Z,3.87
2023-05-01T02:20:31.300Z,3.80
2023-05-01T02:20:58.727Z,2.87
2023-05-01T02:21:06.342Z,2.72
2023-05-01T02:21:18.687Z,3.48
2023-05-01T02:21:26.684Z,3.96
2023-05-01T02:21:36.227Z,4.42
2023-05-01T02:21:47.034Z,3.97
2023-05-01T02:22:06.236Z,3.80
2023-05-01T02:22:16.878Z,3.37
2023-05-01T02:22:28.607Z,3.01
2023-05-01T02:22:36.973Z,3.20
2023-05-01T02:22:46.562Z,3.48
2023-05-01T02:22:57.976Z,3.65
2023-05-01T02:23:07.995Z,3.79
2023-05-01T02:23:24.946Z,4.30
2023-05-01T02:23:33.787Z,4.17
2023-05-01T02:23:41.538Z,4.10
2023-05-01T02:23:48.904Z,4.15
2023-05-01T02:24:06.676Z,4.00
2023-05-01T02:24:17.289Z,3.67
2023-05-01T02:24:34.807Z,2.87
2023-05-01T02:24:44.131Z,3.97
2023-05-01T02:24:52.531Z,4.77
2023-05-01T02:25:01.961Z,4.53
2023-05-01T02:25:12.007Z,4.23
2023-05-01T02:25:19.840Z,3.63
2023-05-01T02:25:39.656Z,2.91
2023-05-01T02:25:53.122Z,3.17
2023-05-01T02:26:03.445Z,3.64
2023-05-01T02:26:17.187Z,3.99
2023-05-01T02:26:29.744Z,4.14
2023-05-01T02:26:42.934Z,4.25
2023-05-01T02:26:57.245Z,4.35
2023-05-01T02:27:15.117Z,3.89
2023-05-01T02:27:28.712Z,3.97
2023-05-01T02:27:39.849Z,4.21
2023-05-01T02:27:50.901Z,3.93
2023-05-01T02:28:02.062Z,3.31
2023-05-01T02:28:12.863Z,2.41
2023-05-01T02:28:23.663Z,2.12
2023-05-01T02:28:32.314Z,2.53
2023-05-01T02:28:41.695Z,3.41
2023-05-01T02:28:56.873Z,3.57
2023-05-01T02:29:07.700Z,3.08
2023-05-01T02:29:15.178Z,3.21
2023-05-01T02:29:29.599Z,3.80
2023-05-01T02:29:37.072Z,3.88
2023-05-01T02:29:44.811Z,4.30
2023-05-01T02:30:00.885Z,4.69
2023-05-01T02:30:10.076Z,4.63
2023-05-01T02:30:21.046Z,3.60
2023-05-01T02:30:36.194Z,3.42
2023-05-01T02:30:43.712Z,2.97
2023-05-01T02:30:50.872Z,3.28
2023-05-01T02:31:08.481Z,3.27
2023-05-01T02:31:15.752Z,3.53
2023-05-01T02:31:23.376Z,2.77
2023-05-01T02:31:42.257Z,2.98
2023-05-01T02:31:49.610Z,3.02
2023-05-01T02:31:57.404Z,3.14
2023-05-01T02:32:12.477Z,2.60
2023-05-01T02:32:20.219Z,2.58
2023-05-01T02:32:29.018Z,2.75
2023-05-01T02:32:43.987Z,3.47
2023-05-01T02:32:51.630Z,2.90
2023-05-01T02:32:58.952Z,3.17
2023-05-01T02:33:18.238Z,3.03
2023-05-01T02:33:26.012Z,3.86
2023-05-01T02:33:36.435Z,3.87
2023-05-01T02:33:51.039Z,3.34
2023-05-01T02:34:02.508Z,3.37
2023-05-01T02:34:11.650Z,3.30
2023-05-01T02:34:19.058Z,3.60
2023-05-01T02:34:26.672Z,3.43
2023-05-01T02:34:42.672Z,3.80
2023-05-01T02:34:52.858Z,4.06
2023-05-01T02:35:08.985Z,3.75
2023-05-01T02:35:17.262Z,2.93
2023-05-01T02:35:24.739Z,2.73
2023-05-01T02:35:31.905Z,4.03
2023-05-01T02:35:49.703Z,4.70
2023-05-01T02:35:58.618Z,5.23
2023-05-01T02:36:17.135Z,4.37
2023-05-01T02:36:24.781Z,3.66
2023-05-01T02:36:33.586Z,2.83
2023-05-01T02:36:40.883Z,2.90
2023-05-01T02:36:55.645Z,4.54
2023-05-01T02:37:04.700Z,4.95
2023-05-01T02:37:22.285Z,4.54
2023-05-01T02:37:30.980Z,3.73
2023-05-01T02:37:43.457Z,2.97
2023-05-01T02:37:51.608Z,2.83
2023-05-01T02:37:59.067Z,3.29
2023-05-01T02:38:09.128Z,3.60
2023-05-01T02:38:24.495Z,3.53
2023-05-01T02:38:32.994Z,3.07
2023-05-01T02:38:51.312Z,2.97
2023-05-01T02:38:58.735Z,3.65
2023-05-01T02:39:06.814Z,3.83
2023-05-01T02:39:14.791Z,3.33
2023-05-01T02:39:24.967Z,2.77
2023-05-01T02:39:40.467Z,3.80
2023-05-01T02:39:51.839Z,3.87
2023-05-01T02:40:00.226Z,3.72
2023-05-01T02:40:08.862Z,3.33
2023-05-01T02:40:18.869Z,3.07
2023-05-01T02:40:27.976Z,3.63
2023-05-01T02:40:53.204Z,3.58
2023-05-01T02:41:02.606Z,3.51
2023-05-01T02:41:11.694Z,3.20
2023-05-01T02:41:22.184Z,3.29
2023-05-01T02:41:30.586Z,3.36
2023-05-01T02:41:40.347Z,3.04
2023-05-01T02:42:01.804Z,2.90